createdAt,value
2022-12-27T00:01:34.151Z,1.88
2022-12-27T00:04:01.816Z,1.80
2022-12-27T00:06:30.087Z,2.22
2022-12-27T00:08:58.174Z,2.45
2022-12-27T00:11:30.003Z,1.35
2022-12-27T00:14:05.586Z,1.55
2022-12-27T00:16:33.495Z,2.03
2022-12-27T00:19:00.965Z,2.30
2022-12-27T00:21:28.518Z,1.85
2022-12-27T00:23:57.620Z,2.40
2022-12-27T00:26:27.691Z,1.88
2022-12-27T00:28:56.040Z,1.95
2022-12-27T00:31:25.169Z,1.40
2022-12-27T00:33:56.002Z,1.73
2022-12-27T00:36:25.966Z,2.25
2022-12-27T00:38:54.475Z,2.05
2022-12-27T00:41:22.072Z,1.65
2022-12-27T00:43:49.747Z,1.10
2022-12-27T00:46:17.482Z,2.42
2022-12-27T00:48:44.931Z,1.45
2022-12-27T00:51:20.045Z,2.67
2022-12-27T00:53:48.714Z,2.33
2022-12-27T00:56:21.944Z,1.73
2022-12-27T00:58:56.474Z,1.50
2022-12-27T01:01:26.065Z,2.00
2022-12-27T01:03:53.544Z,1.42
2022-12-27T01:06:23.584Z,1.10
2022-12-27T01:08:51.217Z,1.85
2022-12-27T01:11:19.459Z,2.83
2022-12-27T01:13:47.639Z,2.58
2022-12-27T01:16:18.205Z,1.80
2022-12-27T01:18:46.520Z,2.65
2022-12-27T01:21:15.977Z,1.58
2022-12-27T01:23:43.812Z,1.55
2022-12-27T01:26:14.696Z,1.63
2022-12-27T01:28:42.373Z,1.75
2022-12-27T01:31:19.197Z,1.98
2022-12-27T01:33:46.689Z,1.80
2022-12-27T01:36:16.982Z,2.30
2022-12-27T01:38:44.753Z,1.10
2022-12-27T01:41:43.253Z,1.13
2022-12-27T01:44:35.103Z,1.27
2022-12-27T01:47:05.728Z,1.60
2022-12-27T01:49:33.256Z,1.45
2022-12-27T01:52:00.584Z,1.60
2022-12-27T01:54:28.552Z,1.83
2022-12-27T01:56:56.443Z,2.55
2022-12-27T01:59:25.057Z,1.90
2022-12-27T02:01:53.134Z,1.85
2022-12-27T02:04:26.254Z,1.63
2022-12-27T02:06:53.694Z,2.30
2022-12-27T02:09:44.837Z,1.38
2022-12-27T02:12:12.336Z,1.33
2022-12-27T02:14:49.139Z,2.13
2022-12-27T02:17:29.156Z,1.75
2022-12-27T02:20:05.425Z,2.85
2022-12-27T02:23:26.293Z,2.53
2022-12-27T02:26:13.309Z,1.60
2022-12-27T02:29:14.800Z,2.08
2022-12-27T02:32:03.914Z,2.30
2022-12-27T02:34:45.438Z,1.58
2022-12-27T02:37:13.963Z,1.60
2022-12-27T02:39:48.164Z,1.77
2022-12-27T02:42:35.467Z,2.22
2022-12-27T02:45:22.640Z,1.58
2022-12-27T02:48:10.510Z,1.40
2022-12-27T02:52:04.815Z,2.08
2022-12-27T02:55:04.689Z,1.95
2022-12-27T02:57:50.077Z,1.83
2022-12-27T03:00:38.644Z,1.60
2022-12-27T03:03:50.997Z,1.50
2022-12-27T03:06:52.753Z,1.80
2022-12-27T03:10:00.632Z,2.17
2022-12-27T03:13:15.728Z,1.30
2022-12-27T03:16:08.753Z,1.10
2022-12-27T03:18:48.339Z,1.85
2022-12-27T03:22:00.297Z,1.42
2022-12-27T03:25:10.907Z,1.30
2022-12-27T03:27:41.264Z,1.85
2022-12-27T03:30:28.761Z,1.88
2022-12-27T03:33:13.318Z,2.15
2022-12-27T03:36:23.671Z,1.42
2022-12-27T03:39:19.582Z,2.70
2022-12-27T03:42:11.650Z,1.80
2022-12-27T03:44:40.207Z,1.83
2022-12-27T03:47:22.862Z,1.50
2022-12-27T03:50:03.531Z,1.65
2022-12-27T03:52:44.027Z,1.90
2022-12-27T03:55:11.966Z,1.40
2022-12-27T03:57:40.682Z,1.67
2022-12-27T04:00:09.065Z,1.65
2022-12-27T04:02:43.932Z,1.67
2022-12-27T04:05:12.068Z,1.45
2022-12-27T04:07:39.406Z,2.03
2022-12-27T04:10:25.520Z,2.65
2022-12-27T04:13:11.182Z,1.55
2022-12-27T04:15:57.134Z,2.15
2022-12-27T04:18:42.880Z,0.90
2022-12-27T04:21:28.575Z,1.70
2022-12-27T04:24:14.312Z,1.60
2022-12-27T04:26:59.965Z,1.58
2022-12-27T04:29:45.716Z,1.85
2022-12-27T04:32:31.487Z,1.55
2022-12-27T04:34:58.871Z,2.17
2022-12-27T04:37:26.274Z,1.20
2022-12-27T04:40:11.987Z,2.13
2022-12-27T04:42:58.180Z,1.45
2022-12-27T04:45:44.146Z,1.48
2022-12-27T04:48:34.308Z,1.80
2022-12-27T04:51:20.816Z,1.95
2022-12-27T04:54:06.416Z,1.25
2022-12-27T04:56:33.740Z,1.20
2022-12-27T04:59:19.407Z,1.40
2022-12-27T05:02:04.948Z,1.42
2022-12-27T05:04:35.396Z,1.80
2022-12-27T05:07:24.742Z,1.63
2022-12-27T05:10:10.907Z,1.50
2022-12-27T05:12:56.990Z,1.45
2022-12-27T05:15:24.451Z,1.30
2022-12-27T05:17:51.810Z,1.67
2022-12-27T05:20:19.150Z,1.50
2022-12-27T05:23:04.959Z,2.22
2022-12-27T05:25:34.794Z,1.55
2022-12-27T05:28:03.274Z,1.48
2022-12-27T05:30:33.748Z,1.63
2022-12-27T05:33:01.486Z,2.03
2022-12-27T05:35:28.966Z,2.13
2022-12-27T05:37:57.001Z,2.38
2022-12-27T05:40:25.253Z,1.42
2022-12-27T05:42:53.103Z,2.38
2022-12-27T05:45:20.830Z,2.40
2022-12-27T05:47:48.506Z,0.95
2022-12-27T05:50:17.316Z,2.28
2022-12-27T05:52:44.645Z,1.67
2022-12-27T05:55:12.798Z,1.70
2022-12-27T05:57:40.208Z,1.90
2022-12-27T06:00:08.467Z,2.08
2022-12-27T06:02:42.639Z,1.83
2022-12-27T06:05:10.633Z,1.38
2022-12-27T06:07:38.869Z,0.80
2022-12-27T06:10:07.765Z,1.88
2022-12-27T06:12:35.385Z,1.45
2022-12-27T06:15:04.249Z,1.85
2022-12-27T06:17:31.786Z,1.98
2022-12-27T06:19:59.213Z,1.35
2022-12-27T06:22:26.528Z,1.23
2022-12-27T06:24:53.884Z,1.92
2022-12-27T06:27:21.799Z,1.30
2022-12-27T06:29:49.086Z,1.38
2022-12-27T06:32:17.777Z,1.38
2022-12-27T06:34:45.915Z,1.17
2022-12-27T06:37:13.385Z,2.17
2022-12-27T06:39:40.702Z,2.03
2022-12-27T06:42:08.156Z,1.90
2022-12-27T06:44:35.594Z,1.40
2022-12-27T06:47:03.466Z,1.45
2022-12-27T06:49:30.826Z,1.15
2022-12-27T06:51:59.882Z,1.33
2022-12-27T06:54:27.577Z,1.13
2022-12-27T06:56:56.835Z,1.38
2022-12-27T06:59:24.518Z,2.10
2022-12-27T07:01:52.634Z,1.35
2022-12-27T07:04:20.865Z,2.17
2022-12-27T07:06:48.163Z,1.40
2022-12-27T07:09:15.609Z,1.75
2022-12-27T07:11:42.919Z,1.50
2022-12-27T07:14:10.850Z,2.28
2022-12-27T07:16:38.365Z,1.50
2022-12-27T07:19:05.972Z,1.42
2022-12-27T07:21:34.509Z,1.33
2022-12-27T07:24:01.809Z,1.13
2022-12-27T07:26:30.798Z,1.50
2022-12-27T07:29:00.588Z,1.15
2022-12-27T07:31:32.368Z,1.90
2022-12-27T07:34:01.840Z,1.17
2022-12-27T07:36:35.577Z,0.93
2022-12-27T07:39:04.283Z,1.63
2022-12-27T07:41:32.293Z,1.65
2022-12-27T07:44:01.990Z,1.20
2022-12-27T07:46:29.435Z,1.58
2022-12-27T07:48:58.187Z,1.50
2022-12-27T07:51:26.834Z,1.30
2022-12-27T07:53:55.277Z,1.80
2022-12-27T07:56:27.436Z,2.33
2022-12-27T07:58:57.352Z,1.92
2022-12-27T08:01:27.420Z,3.00
2022-12-27T08:03:55.324Z,1.52
2022-12-27T08:06:31.667Z,1.98
2022-12-27T08:09:00.922Z,2.13
2022-12-27T08:11:28.257Z,1.73
2022-12-27T08:13:56.013Z,2.40
2022-12-27T08:16:26.179Z,2.58
2022-12-27T08:18:53.647Z,2.03
2022-12-27T08:21:21.460Z,3.47
2022-12-27T08:23:48.854Z,2.20
2022-12-27T08:26:16.257Z,2.83
2022-12-27T08:28:43.783Z,2.25
2022-12-27T08:31:12.685Z,2.10
2022-12-27T08:33:41.920Z,2.00
2022-12-27T08:36:29.277Z,1.92
2022-12-27T08:38:59.326Z,2.97
2022-12-27T08:41:26.727Z,2.42
2022-12-27T08:43:54.131Z,3.05
2022-12-27T08:46:21.772Z,2.80
2022-12-27T08:48:50.342Z,2.65
2022-12-27T08:51:31.098Z,2.67
2022-12-27T08:54:00.481Z,2.92
2022-12-27T08:56:27.888Z,2.47
2022-12-27T08:58:55.198Z,3.85
2022-12-27T09:01:22.797Z,3.42
2022-12-27T09:03:50.224Z,3.00
2022-12-27T09:06:21.035Z,2.65
2022-12-27T09:08:49.797Z,2.90
2022-12-27T09:11:39.909Z,3.53
2022-12-27T09:14:07.324Z,2.00
2022-12-27T09:16:35.906Z,3.42
2022-12-27T09:19:04.052Z,3.35
2022-12-27T09:21:33.899Z,3.28
2022-12-27T09:24:01.467Z,2.72
2022-12-27T09:26:30.109Z,3.17
2022-12-27T09:28:58.317Z,3.55
2022-12-27T09:31:27.109Z,2.72
2022-12-27T09:33:55.773Z,2.35
2022-12-27T09:36:25.508Z,2.90
2022-12-27T09:38:54.321Z,2.92
2022-12-27T09:42:45.148Z,2.92
2022-12-27T09:44:43.634Z,2.88
2022-12-27T09:47:13.247Z,3.70
2022-12-27T09:49:46.601Z,3.60
2022-12-27T09:52:23.042Z,4.03
2022-12-27T09:55:05.509Z,3.63
2022-12-27T09:57:41.870Z,3.13
2022-12-27T10:00:34.059Z,4.03
2022-12-27T10:03:06.854Z,4.03
2022-12-27T10:05:37.189Z,3.65
2022-12-27T10:08:32.239Z,3.83
2022-12-27T10:11:36.381Z,4.20
2022-12-27T10:14:12.573Z,3.90
2022-12-27T10:17:00.649Z,4.18
2022-12-27T10:20:09.923Z,3.28
2022-12-27T10:22:47.886Z,4.63
2022-12-27T10:25:20.339Z,4.70
2022-12-27T10:27:48.322Z,4.10
2022-12-27T10:30:19.873Z,4.53
2022-12-27T10:32:49.216Z,3.90
2022-12-27T10:35:21.321Z,3.42
2022-12-27T10:37:49.948Z,4.50
2022-12-27T10:40:20.339Z,3.90
2022-12-27T10:43:00.196Z,3.83
2022-12-27T10:45:29.024Z,3.92
2022-12-27T10:48:10.499Z,3.35
2022-12-27T10:50:38.550Z,3.63
2022-12-27T10:53:54.346Z,3.47
2022-12-27T10:56:34.722Z,3.58
2022-12-27T10:59:17.311Z,3.22
2022-12-27T11:02:07.606Z,4.03
2022-12-27T11:04:35.108Z,3.30
2022-12-27T11:07:02.392Z,3.30
2022-12-27T11:09:37.920Z,3.10
2022-12-27T11:12:16.419Z,3.80
2022-12-27T11:15:04.000Z,4.22
2022-12-27T11:17:41.097Z,2.95
2022-12-27T11:20:12.250Z,3.38
2022-12-27T11:22:46.518Z,4.15
2022-12-27T11:25:15.942Z,3.20
2022-12-27T11:27:49.414Z,3.70
2022-12-27T11:30:23.796Z,3.40
2022-12-27T11:32:52.799Z,3.72
2022-12-27T11:35:22.774Z,3.45
2022-12-27T11:37:51.116Z,1.08
2022-12-27T11:40:34.727Z,2.90
2022-12-27T11:43:10.623Z,3.40
2022-12-27T11:45:42.482Z,2.63
2022-12-27T11:48:45.081Z,3.75
2022-12-27T11:51:49.380Z,3.42
2022-12-27T11:54:23.710Z,3.72
2022-12-27T11:57:00.252Z,4.22
2022-12-27T11:59:44.745Z,3.30
2022-12-27T12:02:32.547Z,2.95
2022-12-27T12:05:18.722Z,3.42
2022-12-27T12:08:11.434Z,4.05
2022-12-27T12:10:53.872Z,2.58
2022-12-27T12:13:46.495Z,2.70
2022-12-27T12:16:53.489Z,3.28
2022-12-27T12:19:45.894Z,3.05
2022-12-27T12:22:54.289Z,4.03
2022-12-27T12:26:05.839Z,3.17
2022-12-27T12:28:59.159Z,2.58
2022-12-27T12:31:33.390Z,3.22
2022-12-27T12:34:26.007Z,3.42
2022-12-27T12:37:05.977Z,2.17
2022-12-27T12:39:56.051Z,4.10
2022-12-27T12:42:56.267Z,3.53
2022-12-27T12:45:54.573Z,2.90
2022-12-27T12:48:33.715Z,2.83
2022-12-27T12:51:45.612Z,3.38
2022-12-27T12:54:33.250Z,3.20
2022-12-27T12:57:25.360Z,3.80
2022-12-27T13:00:06.976Z,3.13
2022-12-27T13:03:11.104Z,3.10
2022-12-27T13:05:47.570Z,3.58
2022-12-27T13:08:17.630Z,3.10
2022-12-27T13:11:11.970Z,2.90
2022-12-27T13:14:09.689Z,2.38
2022-12-27T13:17:01.966Z,3.13
2022-12-27T13:20:03.861Z,3.38
2022-12-27T13:23:06.843Z,3.33
2022-12-27T13:25:52.947Z,2.33
2022-12-27T13:28:50.213Z,3.75
2022-12-27T13:31:26.548Z,1.88
2022-12-27T13:34:21.384Z,3.28
2022-12-27T13:37:20.106Z,2.38
2022-12-27T13:40:06.213Z,2.63
2022-12-27T13:42:46.792Z,2.72
2022-12-27T13:45:33.490Z,2.60
2022-12-27T13:48:03.919Z,2.55
2022-12-27T13:50:52.323Z,2.97
2022-12-27T13:53:58.605Z,2.90
2022-12-27T13:56:54.885Z,3.00
2022-12-27T13:59:46.147Z,3.13
2022-12-27T14:02:32.408Z,2.67
2022-12-27T14:05:05.594Z,3.00
2022-12-27T14:07:41.801Z,2.97
2022-12-27T14:10:17.334Z,1.70
2022-12-27T14:13:01.379Z,3.25
2022-12-27T14:16:00.778Z,2.85
2022-12-27T14:18:52.927Z,2.70
2022-12-27T14:21:48.357Z,2.80
2022-12-27T14:24:40.330Z,2.45
2022-12-27T14:27:10.415Z,3.13
2022-12-27T14:30:06.074Z,2.83
2022-12-27T14:33:04.658Z,3.42
2022-12-27T14:36:03.964Z,3.42
2022-12-27T14:38:43.528Z,2.92
2022-12-27T14:41:37.107Z,2.42
2022-12-27T14:44:31.610Z,2.92
2022-12-27T14:47:22.204Z,2.58
2022-12-27T14:50:26.384Z,3.17
2022-12-27T14:52:56.844Z,2.70
2022-12-27T14:55:30.175Z,2.22
2022-12-27T14:58:20.946Z,2.40
2022-12-27T15:01:05.067Z,3.30
2022-12-27T15:03:49.220Z,2.30
2022-12-27T15:06:19.647Z,3.05
2022-12-27T15:09:19.998Z,1.98
2022-12-27T15:11:47.390Z,2.25
2022-12-27T15:14:29.839Z,3.13
2022-12-27T15:17:12.311Z,3.30
2022-12-27T15:20:06.452Z,3.30
2022-12-27T15:22:39.832Z,2.30
2022-12-27T15:25:34.852Z,3.40
2022-12-27T15:28:25.230Z,2.95
2022-12-27T15:31:12.630Z,3.85
2022-12-27T15:34:23.001Z,3.72
2022-12-27T15:36:51.290Z,3.53
2022-12-27T15:39:33.905Z,3.00
2022-12-27T15:42:07.399Z,2.95
2022-12-27T15:44:59.627Z,3.40
2022-12-27T15:47:51.850Z,3.08
2022-12-27T15:50:23.859Z,3.65
2022-12-27T15:53:19.107Z,3.55
2022-12-27T15:56:25.163Z,3.40
2022-12-27T15:59:30.131Z,3.42
2022-12-27T16:02:33.544Z,3.57
2022-12-27T16:05:11.130Z,3.72
2022-12-27T16:07:45.514Z,3.85
2022-12-27T16:10:31.451Z,3.60
2022-12-27T16:13:09.578Z,4.10
2022-12-27T16:15:43.486Z,3.72
2022-12-27T16:18:17.787Z,2.67
2022-12-27T16:21:09.532Z,3.45
2022-12-27T16:23:45.814Z,3.35
2022-12-27T16:26:16.154Z,2.95
2022-12-27T16:28:56.523Z,2.80
2022-12-27T16:31:27.063Z,3.20
2022-12-27T16:33:56.585Z,2.90
2022-12-27T16:36:32.348Z,2.90
2022-12-27T16:39:02.458Z,3.15
2022-12-27T16:41:54.931Z,4.15
2022-12-27T16:44:25.352Z,3.17
2022-12-27T16:47:00.666Z,3.45
2022-12-27T16:50:06.535Z,2.97
2022-12-27T16:55:19.934Z,2.63
2022-12-27T16:57:50.911Z,2.95
2022-12-27T17:00:42.755Z,2.47
2022-12-27T17:03:21.177Z,2.85
2022-12-27T17:06:21.639Z,2.90
2022-12-27T17:08:37.599Z,3.35
2022-12-27T17:11:23.884Z,3.08
2022-12-27T17:14:12.245Z,2.72
2022-12-27T17:17:16.557Z,2.30
2022-12-27T17:20:02.116Z,2.42
2022-12-27T17:22:35.314Z,3.67
2022-12-27T17:25:03.727Z,2.58
2022-12-27T17:27:46.267Z,2.70
2022-12-27T17:30:25.220Z,2.70
2022-12-27T17:33:16.907Z,2.38
2022-12-27T17:36:21.146Z,2.30
2022-12-27T17:39:16.017Z,2.50
2022-12-27T17:42:26.987Z,2.67
2022-12-27T17:45:34.086Z,3.05
2022-12-27T17:48:05.935Z,2.70
2022-12-27T17:50:35.442Z,2.20
2022-12-27T17:53:30.352Z,2.95
2022-12-27T17:56:43.074Z,2.72
2022-12-27T17:59:10.466Z,1.58
2022-12-27T18:02:07.052Z,2.58
2022-12-27T18:04:38.401Z,2.45
2022-12-27T18:07:09.641Z,3.33
2022-12-27T18:09:49.463Z,2.63
2022-12-27T18:12:24.634Z,2.30
2022-12-27T18:15:06.650Z,1.70
2022-12-27T18:17:38.599Z,2.08
2022-12-27T18:20:40.467Z,2.65
2022-12-27T18:23:13.616Z,2.33
2022-12-27T18:25:44.321Z,2.78
2022-12-27T18:28:34.027Z,2.65
2022-12-27T18:31:23.615Z,2.05
2022-12-27T18:33:53.958Z,2.53
2022-12-27T18:36:48.594Z,2.45
2022-12-27T18:39:36.264Z,3.53
2022-12-27T18:42:31.539Z,2.33
2022-12-27T18:45:19.266Z,2.50
2022-12-27T18:47:49.354Z,2.13
2022-12-27T18:50:25.239Z,2.17
2022-12-27T18:53:04.792Z,2.75
2022-12-27T18:55:33.038Z,2.05
2022-12-27T18:58:18.197Z,2.08
2022-12-27T19:00:53.245Z,2.65
2022-12-27T19:03:21.345Z,2.33
2022-12-27T19:06:06.489Z,2.22
2022-12-27T19:08:38.069Z,2.50
2022-12-27T19:11:07.011Z,1.90
2022-12-27T19:13:49.230Z,2.45
2022-12-27T19:16:24.421Z,1.77
2022-12-27T19:18:54.906Z,2.55
2022-12-27T19:21:39.446Z,2.20
2022-12-27T19:24:31.423Z,1.08
2022-12-27T19:27:15.067Z,2.75
2022-12-27T19:29:51.427Z,2.67
2022-12-27T19:32:26.113Z,2.72
2022-12-27T19:37:26.885Z,3.53
2022-12-27T19:39:54.864Z,2.80
2022-12-27T19:42:28.650Z,2.90
2022-12-27T19:44:56.234Z,2.25
2022-12-27T19:47:23.654Z,2.03
2022-12-27T19:49:51.003Z,2.95
2022-12-27T19:52:23.818Z,2.47
2022-12-27T19:54:55.256Z,2.58
2022-12-27T19:57:22.631Z,3.40
2022-12-27T19:59:50.034Z,2.25
2022-12-27T20:02:18.543Z,2.92
2022-12-27T20:04:46.295Z,2.20
2022-12-27T20:07:25.291Z,2.25
2022-12-27T20:09:52.707Z,2.50
2022-12-27T20:12:20.206Z,2.33
2022-12-27T20:14:48.128Z,2.67
2022-12-27T20:17:15.617Z,1.67
2022-12-27T20:19:43.106Z,2.58
2022-12-27T20:22:10.498Z,2.58
2022-12-27T20:24:38.041Z,3.05
2022-12-27T20:27:05.808Z,2.40
2022-12-27T20:29:33.239Z,2.40
2022-12-27T20:32:00.938Z,1.33
2022-12-27T20:34:28.401Z,2.55
2022-12-27T20:36:58.132Z,2.53
2022-12-27T20:39:25.558Z,2.38
2022-12-27T20:41:52.904Z,2.17
2022-12-27T20:44:20.313Z,2.42
2022-12-27T20:46:47.909Z,2.65
2022-12-27T20:49:15.324Z,1.75
2022-12-27T20:51:42.848Z,2.25
2022-12-27T20:54:13.043Z,2.35
2022-12-27T20:56:40.493Z,2.50
2022-12-27T20:59:08.022Z,3.00
2022-12-27T21:01:35.554Z,2.25
2022-12-27T21:04:04.382Z,2.30
2022-12-27T21:06:31.871Z,2.47
2022-12-27T21:08:59.438Z,2.60
2022-12-27T21:11:33.280Z,2.47
2022-12-27T21:14:02.829Z,2.92
2022-12-27T21:16:32.834Z,1.98
2022-12-27T21:19:05.135Z,2.40
2022-12-27T21:21:34.949Z,2.33
2022-12-27T21:24:03.007Z,2.50
2022-12-27T21:26:33.744Z,2.50
2022-12-27T21:29:02.939Z,2.60
2022-12-27T21:31:31.307Z,2.13
2022-12-27T21:34:00.119Z,2.50
2022-12-27T21:36:29.671Z,2.17
2022-12-27T21:38:57.623Z,2.47
2022-12-27T21:41:30.517Z,1.95
2022-12-27T21:43:58.079Z,2.22
2022-12-27T21:46:29.738Z,2.10
2022-12-27T21:49:03.130Z,2.67
2022-12-27T21:51:32.560Z,2.50
2022-12-27T21:54:02.485Z,2.40
2022-12-27T21:56:30.949Z,2.35
2022-12-27T21:59:00.242Z,2.22
2022-12-27T22:01:30.109Z,1.80
2022-12-27T22:03:59.050Z,2.83
2022-12-27T22:06:35.310Z,2.20
2022-12-27T22:09:05.526Z,2.05
2022-12-27T22:11:34.487Z,1.98
2022-12-27T22:14:02.368Z,1.50
2022-12-27T22:16:35.233Z,2.00
2022-12-27T22:19:05.588Z,2.20
2022-12-27T22:21:34.749Z,2.28
2022-12-27T22:24:03.481Z,2.38
2022-12-27T22:26:39.410Z,2.40
2022-12-27T22:29:08.179Z,2.25
2022-12-27T22:31:37.717Z,2.85
2022-12-27T22:34:06.457Z,2.20
2022-12-27T22:36:34.761Z,1.95
2022-12-27T22:39:03.075Z,2.35
2022-12-27T22:41:33.140Z,2.50
2022-12-27T22:44:09.921Z,2.22
2022-12-27T22:49:26.038Z,3.05
2022-12-27T22:51:53.420Z,2.60
2022-12-27T22:54:20.852Z,2.42
2022-12-27T22:57:08.282Z,3.00
2022-12-27T22:59:35.722Z,2.65
2022-12-27T23:02:03.148Z,1.85
2022-12-27T23:04:30.810Z,2.80
2022-12-27T23:07:01.624Z,2.28
2022-12-27T23:09:29.278Z,2.40
2022-12-27T23:11:57.059Z,2.92
2022-12-27T23:14:24.739Z,2.30
2022-12-27T23:16:52.092Z,1.95
2022-12-27T23:19:21.961Z,2.70
2022-12-27T23:21:49.972Z,2.38
2022-12-27T23:24:17.449Z,3.67
2022-12-27T23:26:44.854Z,2.30
2022-12-27T23:29:13.258Z,3.00
2022-12-27T23:31:54.622Z,2.85
2022-12-27T23:34:28.197Z,2.67
2022-12-27T23:36:58.269Z,3.55
2022-12-27T23:39:26.110Z,2.75
2022-12-27T23:41:53.602Z,3.20
2022-12-27T23:44:33.060Z,2.83
2022-12-27T23:47:05.283Z,2.45
2022-12-27T23:49:33.233Z,2.80
2022-12-27T23:52:00.780Z,3.35
2022-12-27T23:54:28.457Z,3.20
2022-12-27T23:56:56.023Z,2.92
2022-12-27T23:59:23.400Z,2.67
